Terminal Aerodrome Forecast
Issued by NWS Hastings, NE

Home | Current Version | Previous Version | Text Only | Print | Product List | Glossary On
Versions: 1 2 3 4 5 6 7 8 9 10 11 12 13 14 15 16 17 18 19 20 21 22 23 24 25 26 27 28 29 30 31 32 33 34 35 36 37 38 39 40 41 42 43 44 45
545
FTUS43 KGID 140536
TAFGRI
TAF
KGRI 140536Z 1406/1506 18010KT P6SM SCT110
     FM140800 21011KT P6SM SCT025 SCT110
     FM141100 26011KT P6SM SCT200 WS015/32041KT
     FM141500 27012KT P6SM SCT200
     FM141800 30012KT P6SM SCT200
     FM142100 27009KT P6SM BKN200=

USA.gov is the U.S. government's official web portal to all federal, state and local government web resources and services.